sensor_id;sensor_type;location;lat;lon;timestamp;P1;durP1;ratioP1;P2;durP2;ratioP2
34200;SDS011;20469;55.638;37.670;2023-07-31T00:02:04;8.35;;;3.70;;
34200;SDS011;20469;55.638;37.670;2023-07-31T00:04:32;10.65;;;3.88;;
34200;SDS011;20469;55.638;37.670;2023-07-31T00:06:59;10.00;;;3.83;;
34200;SDS011;20469;55.638;37.670;2023-07-31T00:09:26;7.68;;;3.63;;
34200;SDS011;20469;55.638;37.670;2023-07-31T00:11:53;8.20;;;3.60;;
34200;SDS011;20469;55.638;37.670;2023-07-31T00:14:21;9.75;;;4.70;;
34200;SDS011;20469;55.638;37.670;2023-07-31T00:16:48;10.43;;;4.25;;
34200;SDS011;20469;55.638;37.670;2023-07-31T00:19:18;8.35;;;4.20;;
34200;SDS011;20469;55.638;37.670;2023-07-31T00:21:45;8.95;;;3.78;;
34200;SDS011;20469;55.638;37.670;2023-07-31T00:24:12;8.32;;;3.47;;
34200;SDS011;20469;55.638;37.670;2023-07-31T00:26:39;10.35;;;3.85;;
34200;SDS011;20469;55.638;37.670;2023-07-31T00:29:07;8.77;;;4.07;;
34200;SDS011;20469;55.638;37.670;2023-07-31T00:31:34;8.98;;;4.07;;
34200;SDS011;20469;55.638;37.670;2023-07-31T00:34:01;10.70;;;3.70;;
34200;SDS011;20469;55.638;37.670;2023-07-31T00:36:29;8.07;;;3.80;;
34200;SDS011;20469;55.638;37.670;2023-07-31T00:38:56;9.98;;;3.70;;
34200;SDS011;20469;55.638;37.670;2023-07-31T00:41:23;5.13;;;3.20;;
34200;SDS011;20469;55.638;37.670;2023-07-31T00:43:51;8.60;;;3.20;;
34200;SDS011;20469;55.638;37.670;2023-07-31T00:46:18;6.72;;;3.30;;
34200;SDS011;20469;55.638;37.670;2023-07-31T00:48:46;7.43;;;2.95;;
34200;SDS011;20469;55.638;37.670;2023-07-31T00:51:13;10.07;;;4.28;;
34200;SDS011;20469;55.638;37.670;2023-07-31T00:53:41;7.65;;;3.28;;
34200;SDS011;20469;55.638;37.670;2023-07-31T00:56:10;8.30;;;3.50;;
34200;SDS011;20469;55.638;37.670;2023-07-31T00:58:38;10.95;;;3.40;;
34200;SDS011;20469;55.638;37.670;2023-07-31T01:01:07;8.70;;;3.30;;
34200;SDS011;20469;55.638;37.670;2023-07-31T01:03:34;8.00;;;3.40;;
34200;SDS011;20469;55.638;37.670;2023-07-31T01:08:48;7.85;;;3.30;;
34200;SDS011;20469;55.638;37.670;2023-07-31T01:11:31;7.03;;;2.95;;
34200;SDS011;20469;55.638;37.670;2023-07-31T01:14:01;6.00;;;2.78;;
34200;SDS011;20469;55.638;37.670;2023-07-31T01:16:29;5.00;;;2.60;;
34200;SDS011;20469;55.638;37.670;2023-07-31T01:18:57;6.78;;;2.72;;
34200;SDS011;20469;55.638;37.670;2023-07-31T01:22:48;7.65;;;2.90;;
34200;SDS011;20469;55.638;37.670;2023-07-31T01:27:30;4.35;;;2.65;;
34200;SDS011;20469;55.638;37.670;2023-07-31T01:30:11;4.40;;;2.30;;
34200;SDS011;20469;55.638;37.670;2023-07-31T01:32:43;5.47;;;2.65;;
34200;SDS011;20469;55.638;37.670;2023-07-31T01:35:15;4.97;;;2.50;;
34200;SDS011;20469;55.638;37.670;2023-07-31T01:37:42;3.65;;;2.25;;
34200;SDS011;20469;55.638;37.670;2023-07-31T01:40:10;6.70;;;2.42;;
34200;SDS011;20469;55.638;37.670;2023-07-31T01:42:37;4.80;;;2.40;;
34200;SDS011;20469;55.638;37.670;2023-07-31T01:45:04;4.85;;;2.50;;
34200;SDS011;20469;55.638;37.670;2023-07-31T01:47:32;6.30;;;2.75;;
34200;SDS011;20469;55.638;37.670;2023-07-31T01:50:00;3.80;;;2.58;;
34200;SDS011;20469;55.638;37.670;2023-07-31T01:52:29;7.63;;;2.45;;
34200;SDS011;20469;55.638;37.670;2023-07-31T01:54:56;4.03;;;2.75;;
34200;SDS011;20469;55.638;37.670;2023-07-31T01:57:24;5.55;;;2.72;;
34200;SDS011;20469;55.638;37.670;2023-07-31T01:59:51;5.18;;;2.53;;
34200;SDS011;20469;55.638;37.670;2023-07-31T02:02:19;6.53;;;2.47;;
34200;SDS011;20469;55.638;37.670;2023-07-31T02:04:47;5.03;;;2.42;;
34200;SDS011;20469;55.638;37.670;2023-07-31T02:07:14;4.85;;;2.80;;
34200;SDS011;20469;55.638;37.670;2023-07-31T02:09:42;8.07;;;3.28;;
34200;SDS011;20469;55.638;37.670;2023-07-31T02:12:09;6.53;;;2.30;;
34200;SDS011;20469;55.638;37.670;2023-07-31T02:14:36;5.25;;;2.65;;
34200;SDS011;20469;55.638;37.670;2023-07-31T02:17:04;5.10;;;3.03;;
34200;SDS011;20469;55.638;37.670;2023-07-31T02:19:51;6.57;;;2.95;;
34200;SDS011;20469;55.638;37.670;2023-07-31T02:22:19;4.15;;;2.50;;
34200;SDS011;20469;55.638;37.670;2023-07-31T02:24:46;5.68;;;2.58;;
34200;SDS011;20469;55.638;37.670;2023-07-31T02:27:13;4.88;;;2.35;;
34200;SDS011;20469;55.638;37.670;2023-07-31T02:29:40;5.60;;;2.50;;
34200;SDS011;20469;55.638;37.670;2023-07-31T02:32:08;9.20;;;3.22;;
34200;SDS011;20469;55.638;37.670;2023-07-31T02:34:35;7.70;;;2.60;;
34200;SDS011;20469;55.638;37.670;2023-07-31T02:37:02;7.53;;;2.90;;
34200;SDS011;20469;55.638;37.670;2023-07-31T02:39:30;6.32;;;2.67;;
34200;SDS011;20469;55.638;37.670;2023-07-31T02:41:57;9.57;;;2.58;;
34200;SDS011;20469;55.638;37.670;2023-07-31T02:44:24;7.65;;;2.90;;
34200;SDS011;20469;55.638;37.670;2023-07-31T02:46:52;5.88;;;3.08;;
34200;SDS011;20469;55.638;37.670;2023-07-31T02:49:19;6.22;;;3.42;;
34200;SDS011;20469;55.638;37.670;2023-07-31T02:51:46;10.15;;;3.58;;
34200;SDS011;20469;55.638;37.670;2023-07-31T02:54:13;9.60;;;3.60;;
34200;SDS011;20469;55.638;37.670;2023-07-31T02:56:40;9.93;;;3.78;;
34200;SDS011;20469;55.638;37.670;2023-07-31T02:59:08;9.23;;;3.40;;
34200;SDS011;20469;55.638;37.670;2023-07-31T03:01:35;7.63;;;3.30;;
34200;SDS011;20469;55.638;37.670;2023-07-31T03:04:03;7.15;;;2.63;;
34200;SDS011;20469;55.638;37.670;2023-07-31T03:06:30;9.05;;;3.30;;
34200;SDS011;20469;55.638;37.670;2023-07-31T03:08:57;10.75;;;5.85;;
34200;SDS011;20469;55.638;37.670;2023-07-31T03:11:26;9.20;;;3.03;;
34200;SDS011;20469;55.638;37.670;2023-07-31T03:13:53;7.55;;;3.35;;
34200;SDS011;20469;55.638;37.670;2023-07-31T03:16:20;8.40;;;3.45;;
34200;SDS011;20469;55.638;37.670;2023-07-31T03:18:49;5.90;;;2.97;;
34200;SDS011;20469;55.638;37.670;2023-07-31T03:21:16;6.82;;;3.40;;
34200;SDS011;20469;55.638;37.670;2023-07-31T03:23:43;10.30;;;3.50;;
34200;SDS011;20469;55.638;37.670;2023-07-31T03:26:10;7.43;;;2.90;;
34200;SDS011;20469;55.638;37.670;2023-07-31T03:28:38;6.57;;;2.85;;
34200;SDS011;20469;55.638;37.670;2023-07-31T03:31:05;10.93;;;3.00;;
34200;SDS011;20469;55.638;37.670;2023-07-31T03:33:34;8.38;;;2.95;;
34200;SDS011;20469;55.638;37.670;2023-07-31T03:36:01;6.47;;;2.92;;
34200;SDS011;20469;55.638;37.670;2023-07-31T03:38:29;7.15;;;2.50;;
34200;SDS011;20469;55.638;37.670;2023-07-31T03:40:56;6.25;;;2.70;;
34200;SDS011;20469;55.638;37.670;2023-07-31T03:43:25;9.02;;;3.15;;
34200;SDS011;20469;55.638;37.670;2023-07-31T03:45:52;4.85;;;2.70;;
34200;SDS011;20469;55.638;37.670;2023-07-31T03:48:20;8.45;;;2.97;;
34200;SDS011;20469;55.638;37.670;2023-07-31T03:50:47;6.93;;;2.92;;
34200;SDS011;20469;55.638;37.670;2023-07-31T03:53:14;7.22;;;3.08;;
34200;SDS011;20469;55.638;37.670;2023-07-31T03:55:41;9.10;;;2.75;;
34200;SDS011;20469;55.638;37.670;2023-07-31T03:58:09;6.97;;;2.75;;
34200;SDS011;20469;55.638;37.670;2023-07-31T04:00:36;9.88;;;2.90;;
34200;SDS011;20469;55.638;37.670;2023-07-31T04:03:04;5.43;;;2.50;;
34200;SDS011;20469;55.638;37.670;2023-07-31T04:05:31;7.38;;;2.97;;
34200;SDS011;20469;55.638;37.670;2023-07-31T04:07:59;7.68;;;2.90;;
34200;SDS011;20469;55.638;37.670;2023-07-31T04:10:26;4.53;;;2.55;;
34200;SDS011;20469;55.638;37.670;2023-07-31T04:12:53;4.82;;;2.22;;
34200;SDS011;20469;55.638;37.670;2023-07-31T04:15:20;5.45;;;2.25;;
34200;SDS011;20469;55.638;37.670;2023-07-31T04:17:48;3.83;;;2.25;;
34200;SDS011;20469;55.638;37.670;2023-07-31T04:20:15;4.85;;;1.83;;
34200;SDS011;20469;55.638;37.670;2023-07-31T04:22:42;5.22;;;2.00;;
34200;SDS011;20469;55.638;37.670;2023-07-31T04:25:09;3.55;;;2.17;;
34200;SDS011;20469;55.638;37.670;2023-07-31T04:27:36;3.65;;;2.00;;
34200;SDS011;20469;55.638;37.670;2023-07-31T04:30:04;4.72;;;2.25;;
34200;SDS011;20469;55.638;37.670;2023-07-31T04:32:32;5.85;;;2.72;;
34200;SDS011;20469;55.638;37.670;2023-07-31T04:34:59;5.30;;;2.22;;
34200;SDS011;20469;55.638;37.670;2023-07-31T04:37:26;7.43;;;2.30;;
34200;SDS011;20469;55.638;37.670;2023-07-31T04:39:53;6.13;;;2.40;;
34200;SDS011;20469;55.638;37.670;2023-07-31T04:42:20;5.50;;;2.78;;
34200;SDS011;20469;55.638;37.670;2023-07-31T04:44:48;5.05;;;2.20;;
34200;SDS011;20469;55.638;37.670;2023-07-31T04:47:15;3.72;;;2.05;;
34200;SDS011;20469;55.638;37.670;2023-07-31T04:49:42;4.22;;;2.08;;
34200;SDS011;20469;55.638;37.670;2023-07-31T04:52:10;3.58;;;1.80;;
34200;SDS011;20469;55.638;37.670;2023-07-31T04:54:37;3.65;;;2.10;;
34200;SDS011;20469;55.638;37.670;2023-07-31T04:57:05;4.43;;;2.30;;
34200;SDS011;20469;55.638;37.670;2023-07-31T04:59:33;6.28;;;2.10;;
34200;SDS011;20469;55.638;37.670;2023-07-31T05:02:00;7.68;;;2.38;;
34200;SDS011;20469;55.638;37.670;2023-07-31T05:04:27;4.43;;;2.38;;
34200;SDS011;20469;55.638;37.670;2023-07-31T05:06:55;8.20;;;2.50;;
34200;SDS011;20469;55.638;37.670;2023-07-31T05:09:22;5.65;;;2.08;;
34200;SDS011;20469;55.638;37.670;2023-07-31T05:11:49;3.38;;;1.75;;
34200;SDS011;20469;55.638;37.670;2023-07-31T05:14:16;4.68;;;1.60;;
34200;SDS011;20469;55.638;37.670;2023-07-31T05:16:43;4.47;;;1.67;;
34200;SDS011;20469;55.638;37.670;2023-07-31T05:19:10;2.40;;;1.60;;
34200;SDS011;20469;55.638;37.670;2023-07-31T05:21:38;4.80;;;2.25;;
34200;SDS011;20469;55.638;37.670;2023-07-31T05:24:05;5.22;;;1.83;;
34200;SDS011;20469;55.638;37.670;2023-07-31T05:26:33;2.40;;;1.95;;
34200;SDS011;20469;55.638;37.670;2023-07-31T05:29:00;4.82;;;2.15;;
34200;SDS011;20469;55.638;37.670;2023-07-31T05:31:27;3.97;;;2.00;;
34200;SDS011;20469;55.638;37.670;2023-07-31T05:33:55;4.55;;;1.60;;
34200;SDS011;20469;55.638;37.670;2023-07-31T05:36:22;3.88;;;1.85;;
34200;SDS011;20469;55.638;37.670;2023-07-31T05:38:49;3.85;;;1.73;;
34200;SDS011;20469;55.638;37.670;2023-07-31T05:41:16;3.78;;;1.70;;
34200;SDS011;20469;55.638;37.670;2023-07-31T05:43:44;4.10;;;1.90;;
34200;SDS011;20469;55.638;37.670;2023-07-31T05:46:12;4.97;;;1.77;;
34200;SDS011;20469;55.638;37.670;2023-07-31T05:48:39;2.95;;;1.85;;
34200;SDS011;20469;55.638;37.670;2023-07-31T05:51:07;5.82;;;1.85;;
34200;SDS011;20469;55.638;37.670;2023-07-31T05:53:34;5.25;;;1.80;;
34200;SDS011;20469;55.638;37.670;2023-07-31T05:56:02;5.70;;;1.90;;
34200;SDS011;20469;55.638;37.670;2023-07-31T05:58:30;5.43;;;1.80;;
34200;SDS011;20469;55.638;37.670;2023-07-31T06:00:57;3.42;;;1.67;;
34200;SDS011;20469;55.638;37.670;2023-07-31T06:03:24;3.15;;;1.67;;
34200;SDS011;20469;55.638;37.670;2023-07-31T06:05:51;7.57;;;2.00;;
34200;SDS011;20469;55.638;37.670;2023-07-31T06:08:18;2.92;;;1.40;;
34200;SDS011;20469;55.638;37.670;2023-07-31T06:10:46;3.92;;;1.55;;
34200;SDS011;20469;55.638;37.670;2023-07-31T06:13:13;3.85;;;1.52;;
34200;SDS011;20469;55.638;37.670;2023-07-31T06:15:40;5.63;;;1.60;;
34200;SDS011;20469;55.638;37.670;2023-07-31T06:18:07;3.83;;;1.50;;
34200;SDS011;20469;55.638;37.670;2023-07-31T06:20:35;3.75;;;1.80;;
34200;SDS011;20469;55.638;37.670;2023-07-31T06:23:02;3.22;;;1.45;;
34200;SDS011;20469;55.638;37.670;2023-07-31T06:25:30;2.20;;;1.42;;
34200;SDS011;20469;55.638;37.670;2023-07-31T06:27:57;1.60;;;1.40;;
34200;SDS011;20469;55.638;37.670;2023-07-31T06:30:24;5.72;;;1.67;;
34200;SDS011;20469;55.638;37.670;2023-07-31T06:32:51;2.50;;;1.20;;
34200;SDS011;20469;55.638;37.670;2023-07-31T06:35:19;3.40;;;1.50;;
34200;SDS011;20469;55.638;37.670;2023-07-31T06:37:46;4.00;;;1.40;;
34200;SDS011;20469;55.638;37.670;2023-07-31T06:40:13;4.05;;;1.50;;
34200;SDS011;20469;55.638;37.670;2023-07-31T06:42:40;3.05;;;1.50;;
34200;SDS011;20469;55.638;37.670;2023-07-31T06:45:08;2.45;;;1.45;;
34200;SDS011;20469;55.638;37.670;2023-07-31T06:47:35;3.30;;;1.35;;
34200;SDS011;20469;55.638;37.670;2023-07-31T06:50:03;4.20;;;1.85;;
34200;SDS011;20469;55.638;37.670;2023-07-31T06:52:31;4.93;;;1.83;;
34200;SDS011;20469;55.638;37.670;2023-07-31T06:55:16;2.10;;;1.58;;
34200;SDS011;20469;55.638;37.670;2023-07-31T06:57:46;2.40;;;1.50;;
34200;SDS011;20469;55.638;37.670;2023-07-31T07:00:14;1.92;;;1.48;;
34200;SDS011;20469;55.638;37.670;2023-07-31T07:02:42;6.85;;;1.75;;
34200;SDS011;20469;55.638;37.670;2023-07-31T07:05:09;9.18;;;1.75;;
34200;SDS011;20469;55.638;37.670;2023-07-31T07:07:36;4.25;;;1.77;;
34200;SDS011;20469;55.638;37.670;2023-07-31T07:10:04;5.20;;;1.92;;
34200;SDS011;20469;55.638;37.670;2023-07-31T07:12:32;5.50;;;1.58;;
34200;SDS011;20469;55.638;37.670;2023-07-31T07:15:00;3.20;;;1.50;;
34200;SDS011;20469;55.638;37.670;2023-07-31T07:17:32;3.97;;;1.63;;
34200;SDS011;20469;55.638;37.670;2023-07-31T07:19:59;2.05;;;1.50;;
34200;SDS011;20469;55.638;37.670;2023-07-31T07:22:30;3.63;;;1.67;;
34200;SDS011;20469;55.638;37.670;2023-07-31T07:24:57;4.28;;;1.70;;
34200;SDS011;20469;55.638;37.670;2023-07-31T07:27:24;3.55;;;1.70;;
34200;SDS011;20469;55.638;37.670;2023-07-31T07:29:52;3.55;;;1.60;;
34200;SDS011;20469;55.638;37.670;2023-07-31T07:32:20;2.38;;;1.35;;
34200;SDS011;20469;55.638;37.670;2023-07-31T07:34:48;4.22;;;1.42;;
34200;SDS011;20469;55.638;37.670;2023-07-31T07:37:15;3.22;;;1.60;;
34200;SDS011;20469;55.638;37.670;2023-07-31T07:39:43;3.47;;;1.67;;
34200;SDS011;20469;55.638;37.670;2023-07-31T07:42:10;4.97;;;1.48;;
34200;SDS011;20469;55.638;37.670;2023-07-31T07:44:37;4.82;;;1.30;;
34200;SDS011;20469;55.638;37.670;2023-07-31T07:47:04;3.33;;;1.50;;
34200;SDS011;20469;55.638;37.670;2023-07-31T07:49:35;3.33;;;1.33;;
34200;SDS011;20469;55.638;37.670;2023-07-31T07:52:02;5.07;;;1.70;;
34200;SDS011;20469;55.638;37.670;2023-07-31T07:54:31;2.20;;;1.60;;
34200;SDS011;20469;55.638;37.670;2023-07-31T07:56:59;3.67;;;1.48;;
34200;SDS011;20469;55.638;37.670;2023-07-31T07:59:26;3.65;;;1.90;;
34200;SDS011;20469;55.638;37.670;2023-07-31T08:01:53;3.70;;;1.80;;
34200;SDS011;20469;55.638;37.670;2023-07-31T08:04:21;4.05;;;1.98;;
34200;SDS011;20469;55.638;37.670;2023-07-31T08:06:48;6.18;;;1.80;;
34200;SDS011;20469;55.638;37.670;2023-07-31T08:09:15;3.85;;;1.42;;
34200;SDS011;20469;55.638;37.670;2023-07-31T08:11:42;3.22;;;1.40;;
34200;SDS011;20469;55.638;37.670;2023-07-31T08:14:10;7.88;;;1.48;;
34200;SDS011;20469;55.638;37.670;2023-07-31T08:16:37;5.25;;;1.70;;
34200;SDS011;20469;55.638;37.670;2023-07-31T08:19:05;4.75;;;1.50;;
34200;SDS011;20469;55.638;37.670;2023-07-31T08:21:33;4.65;;;1.92;;
34200;SDS011;20469;55.638;37.670;2023-07-31T08:24:00;4.28;;;2.28;;
34200;SDS011;20469;55.638;37.670;2023-07-31T08:26:27;4.68;;;1.70;;
34200;SDS011;20469;55.638;37.670;2023-07-31T08:28:54;4.00;;;1.80;;
34200;SDS011;20469;55.638;37.670;2023-07-31T08:31:22;6.95;;;1.60;;
34200;SDS011;20469;55.638;37.670;2023-07-31T08:33:49;7.68;;;2.20;;
34200;SDS011;20469;55.638;37.670;2023-07-31T08:36:17;4.20;;;1.58;;
34200;SDS011;20469;55.638;37.670;2023-07-31T08:38:45;2.65;;;1.65;;
34200;SDS011;20469;55.638;37.670;2023-07-31T08:41:12;3.58;;;1.63;;
34200;SDS011;20469;55.638;37.670;2023-07-31T08:43:40;4.95;;;1.63;;
34200;SDS011;20469;55.638;37.670;2023-07-31T08:46:08;3.28;;;1.40;;
34200;SDS011;20469;55.638;37.670;2023-07-31T08:48:36;3.65;;;1.60;;
34200;SDS011;20469;55.638;37.670;2023-07-31T08:51:05;3.22;;;1.95;;
34200;SDS011;20469;55.638;37.670;2023-07-31T08:53:33;5.82;;;1.80;;
34200;SDS011;20469;55.638;37.670;2023-07-31T08:56:01;5.53;;;1.85;;
34200;SDS011;20469;55.638;37.670;2023-07-31T08:58:31;3.85;;;1.50;;
34200;SDS011;20469;55.638;37.670;2023-07-31T09:00:59;1.95;;;1.60;;
34200;SDS011;20469;55.638;37.670;2023-07-31T09:03:30;3.47;;;1.70;;
34200;SDS011;20469;55.638;37.670;2023-07-31T09:06:00;2.22;;;1.90;;
34200;SDS011;20469;55.638;37.670;2023-07-31T09:08:30;3.42;;;1.70;;
34200;SDS011;20469;55.638;37.670;2023-07-31T09:10:59;4.15;;;2.20;;
34200;SDS011;20469;55.638;37.670;2023-07-31T09:13:30;2.05;;;1.65;;
34200;SDS011;20469;55.638;37.670;2023-07-31T09:15:58;3.25;;;1.70;;
34200;SDS011;20469;55.638;37.670;2023-07-31T09:18:26;4.70;;;1.70;;
34200;SDS011;20469;55.638;37.670;2023-07-31T09:21:03;2.83;;;1.52;;
34200;SDS011;20469;55.638;37.670;2023-07-31T09:23:44;2.33;;;1.60;;
34200;SDS011;20469;55.638;37.670;2023-07-31T09:26:33;4.18;;;1.50;;
34200;SDS011;20469;55.638;37.670;2023-07-31T09:29:04;2.92;;;1.38;;
34200;SDS011;20469;55.638;37.670;2023-07-31T09:34:06;3.38;;;1.70;;
34200;SDS011;20469;55.638;37.670;2023-07-31T09:36:47;3.35;;;1.77;;
34200;SDS011;20469;55.638;37.670;2023-07-31T09:39:16;4.03;;;1.60;;
34200;SDS011;20469;55.638;37.670;2023-07-31T09:41:55;3.33;;;1.60;;
34200;SDS011;20469;55.638;37.670;2023-07-31T09:44:38;1.67;;;1.55;;
34200;SDS011;20469;55.638;37.670;2023-07-31T09:47:20;2.40;;;1.80;;
34200;SDS011;20469;55.638;37.670;2023-07-31T09:49:52;2.85;;;1.60;;
34200;SDS011;20469;55.638;37.670;2023-07-31T09:52:20;3.33;;;1.60;;
34200;SDS011;20469;55.638;37.670;2023-07-31T09:54:48;3.95;;;1.60;;
34200;SDS011;20469;55.638;37.670;2023-07-31T09:57:15;3.13;;;1.52;;
34200;SDS011;20469;55.638;37.670;2023-07-31T09:59:45;3.88;;;1.80;;
34200;SDS011;20469;55.638;37.670;2023-07-31T10:02:16;3.83;;;1.50;;
34200;SDS011;20469;55.638;37.670;2023-07-31T10:04:49;2.75;;;1.80;;
34200;SDS011;20469;55.638;37.670;2023-07-31T10:07:17;2.78;;;1.70;;
34200;SDS011;20469;55.638;37.670;2023-07-31T10:09:47;3.97;;;1.80;;
34200;SDS011;20469;55.638;37.670;2023-07-31T10:12:15;2.38;;;1.52;;
34200;SDS011;20469;55.638;37.670;2023-07-31T10:14:45;3.28;;;1.80;;
34200;SDS011;20469;55.638;37.670;2023-07-31T10:17:13;4.88;;;1.70;;
34200;SDS011;20469;55.638;37.670;2023-07-31T10:19:41;2.30;;;1.73;;
34200;SDS011;20469;55.638;37.670;2023-07-31T10:22:09;3.22;;;1.77;;
34200;SDS011;20469;55.638;37.670;2023-07-31T10:24:39;3.58;;;1.80;;
34200;SDS011;20469;55.638;37.670;2023-07-31T10:27:09;3.17;;;1.98;;
34200;SDS011;20469;55.638;37.670;2023-07-31T10:29:37;5.18;;;1.73;;
34200;SDS011;20469;55.638;37.670;2023-07-31T10:32:09;2.85;;;1.83;;
34200;SDS011;20469;55.638;37.670;2023-07-31T10:34:38;4.22;;;1.88;;
34200;SDS011;20469;55.638;37.670;2023-07-31T10:40:04;4.88;;;1.80;;
34200;SDS011;20469;55.638;37.670;2023-07-31T10:42:36;2.55;;;1.80;;
34200;SDS011;20469;55.638;37.670;2023-07-31T10:45:07;2.30;;;1.77;;
34200;SDS011;20469;55.638;37.670;2023-07-31T10:47:39;2.05;;;1.80;;
34200;SDS011;20469;55.638;37.670;2023-07-31T10:50:20;2.88;;;1.50;;
34200;SDS011;20469;55.638;37.670;2023-07-31T10:52:51;5.28;;;1.92;;
34200;SDS011;20469;55.638;37.670;2023-07-31T10:58:09;4.30;;;1.80;;
34200;SDS011;20469;55.638;37.670;2023-07-31T11:00:39;5.93;;;1.70;;
34200;SDS011;20469;55.638;37.670;2023-07-31T11:03:09;2.95;;;1.90;;
34200;SDS011;20469;55.638;37.670;2023-07-31T11:05:51;3.42;;;1.98;;
34200;SDS011;20469;55.638;37.670;2023-07-31T11:08:25;3.65;;;1.80;;
34200;SDS011;20469;55.638;37.670;2023-07-31T11:13:40;3.20;;;1.70;;
34200;SDS011;20469;55.638;37.670;2023-07-31T11:16:13;4.25;;;1.88;;
34200;SDS011;20469;55.638;37.670;2023-07-31T11:18:41;3.97;;;2.03;;
34200;SDS011;20469;55.638;37.670;2023-07-31T11:21:16;3.13;;;1.77;;
34200;SDS011;20469;55.638;37.670;2023-07-31T11:23:50;3.42;;;1.80;;
34200;SDS011;20469;55.638;37.670;2023-07-31T11:26:19;2.83;;;1.63;;
34200;SDS011;20469;55.638;37.670;2023-07-31T11:28:47;3.53;;;1.98;;
34200;SDS011;20469;55.638;37.670;2023-07-31T11:31:16;3.42;;;1.80;;
34200;SDS011;20469;55.638;37.670;2023-07-31T11:33:44;5.57;;;2.30;;
34200;SDS011;20469;55.638;37.670;2023-07-31T11:36:18;3.83;;;2.00;;
34200;SDS011;20469;55.638;37.670;2023-07-31T11:38:47;3.35;;;1.92;;
34200;SDS011;20469;55.638;37.670;2023-07-31T11:41:15;5.50;;;2.20;;
34200;SDS011;20469;55.638;37.670;2023-07-31T11:43:45;7.80;;;2.13;;
34200;SDS011;20469;55.638;37.670;2023-07-31T11:46:14;5.22;;;1.92;;
34200;SDS011;20469;55.638;37.670;2023-07-31T11:48:42;3.80;;;2.10;;
34200;SDS011;20469;55.638;37.670;2023-07-31T11:51:10;4.28;;;1.90;;
34200;SDS011;20469;55.638;37.670;2023-07-31T11:53:43;3.72;;;2.15;;
34200;SDS011;20469;55.638;37.670;2023-07-31T11:56:19;3.45;;;2.22;;
34200;SDS011;20469;55.638;37.670;2023-07-31T11:58:48;6.93;;;2.20;;
34200;SDS011;20469;55.638;37.670;2023-07-31T12:01:18;7.63;;;2.47;;
34200;SDS011;20469;55.638;37.670;2023-07-31T12:03:47;5.70;;;2.00;;
34200;SDS011;20469;55.638;37.670;2023-07-31T12:06:16;7.93;;;2.40;;
34200;SDS011;20469;55.638;37.670;2023-07-31T12:08:43;5.57;;;2.20;;
34200;SDS011;20469;55.638;37.670;2023-07-31T12:11:10;5.88;;;2.30;;
34200;SDS011;20469;55.638;37.670;2023-07-31T12:13:38;5.00;;;1.80;;
34200;SDS011;20469;55.638;37.670;2023-07-31T12:16:05;7.20;;;2.30;;
34200;SDS011;20469;55.638;37.670;2023-07-31T12:18:33;5.97;;;2.25;;
34200;SDS011;20469;55.638;37.670;2023-07-31T12:21:05;7.37;;;2.07;;
34200;SDS011;20469;55.638;37.670;2023-07-31T12:23:35;7.40;;;2.05;;
34200;SDS011;20469;55.638;37.670;2023-07-31T12:26:11;5.63;;;2.15;;
34200;SDS011;20469;55.638;37.670;2023-07-31T12:28:43;9.23;;;2.42;;
34200;SDS011;20469;55.638;37.670;2023-07-31T12:33:49;6.70;;;1.80;;
34200;SDS011;20469;55.638;37.670;2023-07-31T12:36:21;7.82;;;2.58;;
34200;SDS011;20469;55.638;37.670;2023-07-31T12:38:50;6.15;;;2.20;;
34200;SDS011;20469;55.638;37.670;2023-07-31T12:41:18;3.35;;;1.90;;
34200;SDS011;20469;55.638;37.670;2023-07-31T12:43:45;6.43;;;2.33;;
34200;SDS011;20469;55.638;37.670;2023-07-31T12:46:13;11.20;;;3.40;;
34200;SDS011;20469;55.638;37.670;2023-07-31T12:48:41;4.63;;;1.90;;
34200;SDS011;20469;55.638;37.670;2023-07-31T12:51:08;8.98;;;2.40;;
34200;SDS011;20469;55.638;37.670;2023-07-31T12:53:36;14.40;;;3.00;;
34200;SDS011;20469;55.638;37.670;2023-07-31T12:56:03;11.95;;;2.88;;
34200;SDS011;20469;55.638;37.670;2023-07-31T12:58:30;6.88;;;2.47;;
34200;SDS011;20469;55.638;37.670;2023-07-31T13:00:58;6.75;;;2.33;;
34200;SDS011;20469;55.638;37.670;2023-07-31T13:03:25;3.95;;;2.03;;
34200;SDS011;20469;55.638;37.670;2023-07-31T13:05:53;3.72;;;2.60;;
34200;SDS011;20469;55.638;37.670;2023-07-31T13:08:20;5.30;;;2.00;;
34200;SDS011;20469;55.638;37.670;2023-07-31T13:10:47;7.60;;;2.22;;
34200;SDS011;20469;55.638;37.670;2023-07-31T13:13:15;5.55;;;2.17;;
34200;SDS011;20469;55.638;37.670;2023-07-31T13:15:43;6.05;;;2.10;;
34200;SDS011;20469;55.638;37.670;2023-07-31T13:18:11;7.30;;;2.13;;
34200;SDS011;20469;55.638;37.670;2023-07-31T13:20:38;4.65;;;2.20;;
34200;SDS011;20469;55.638;37.670;2023-07-31T13:23:05;9.73;;;2.50;;
34200;SDS011;20469;55.638;37.670;2023-07-31T13:25:32;14.57;;;3.13;;
34200;SDS011;20469;55.638;37.670;2023-07-31T13:28:00;10.93;;;3.53;;
34200;SDS011;20469;55.638;37.670;2023-07-31T13:30:29;10.80;;;2.10;;
34200;SDS011;20469;55.638;37.670;2023-07-31T13:32:56;3.72;;;2.10;;
34200;SDS011;20469;55.638;37.670;2023-07-31T13:35:24;9.20;;;2.35;;
34200;SDS011;20469;55.638;37.670;2023-07-31T13:37:51;5.10;;;2.00;;
34200;SDS011;20469;55.638;37.670;2023-07-31T13:40:18;4.90;;;2.20;;
34200;SDS011;20469;55.638;37.670;2023-07-31T13:42:46;3.72;;;2.08;;
34200;SDS011;20469;55.638;37.670;2023-07-31T13:45:14;2.10;;;1.90;;
34200;SDS011;20469;55.638;37.670;2023-07-31T13:47:41;5.10;;;2.42;;
34200;SDS011;20469;55.638;37.670;2023-07-31T13:50:10;3.25;;;2.22;;
34200;SDS011;20469;55.638;37.670;2023-07-31T13:52:38;7.68;;;2.65;;
34200;SDS011;20469;55.638;37.670;2023-07-31T13:55:05;6.03;;;2.50;;
34200;SDS011;20469;55.638;37.670;2023-07-31T13:57:32;4.53;;;2.25;;
34200;SDS011;20469;55.638;37.670;2023-07-31T14:00:00;4.35;;;2.20;;
34200;SDS011;20469;55.638;37.670;2023-07-31T14:02:30;5.28;;;1.98;;
34200;SDS011;20469;55.638;37.670;2023-07-31T14:04:58;7.45;;;2.13;;
34200;SDS011;20469;55.638;37.670;2023-07-31T14:07:25;5.43;;;2.30;;
34200;SDS011;20469;55.638;37.670;2023-07-31T14:09:52;5.05;;;1.88;;
34200;SDS011;20469;55.638;37.670;2023-07-31T14:12:19;7.18;;;2.40;;
34200;SDS011;20469;55.638;37.670;2023-07-31T14:15:05;3.72;;;2.20;;
34200;SDS011;20469;55.638;37.670;2023-07-31T14:17:33;10.30;;;6.32;;
34200;SDS011;20469;55.638;37.670;2023-07-31T14:20:01;6.22;;;2.03;;
34200;SDS011;20469;55.638;37.670;2023-07-31T14:22:29;6.05;;;1.85;;
34200;SDS011;20469;55.638;37.670;2023-07-31T14:24:57;2.95;;;2.00;;
34200;SDS011;20469;55.638;37.670;2023-07-31T14:27:24;3.65;;;2.10;;
34200;SDS011;20469;55.638;37.670;2023-07-31T14:29:52;4.85;;;2.30;;
34200;SDS011;20469;55.638;37.670;2023-07-31T14:32:20;5.22;;;2.20;;
34200;SDS011;20469;55.638;37.670;2023-07-31T14:34:50;3.60;;;2.35;;
34200;SDS011;20469;55.638;37.670;2023-07-31T14:37:17;33.95;;;12.77;;
34200;SDS011;20469;55.638;37.670;2023-07-31T14:39:44;40.53;;;15.85;;
34200;SDS011;20469;55.638;37.670;2023-07-31T14:42:12;221.63;;;79.85;;
34200;SDS011;20469;55.638;37.670;2023-07-31T14:44:39;92.10;;;29.42;;
34200;SDS011;20469;55.638;37.670;2023-07-31T14:47:06;310.27;;;103.00;;
34200;SDS011;20469;55.638;37.670;2023-07-31T14:49:33;177.40;;;61.47;;
34200;SDS011;20469;55.638;37.670;2023-07-31T14:52:01;255.60;;;93.75;;
34200;SDS011;20469;55.638;37.670;2023-07-31T14:54:28;161.88;;;53.92;;
34200;SDS011;20469;55.638;37.670;2023-07-31T14:56:55;392.83;;;143.35;;
34200;SDS011;20469;55.638;37.670;2023-07-31T14:59:23;595.78;;;246.52;;
34200;SDS011;20469;55.638;37.670;2023-07-31T15:01:50;418.13;;;159.40;;